createdAt,value
2023-01-09T00:00:17.195Z,24.2
2023-01-09T00:05:17.085Z,23.4
2023-01-09T00:10:17.399Z,23.5
2023-01-09T00:15:17.459Z,23.2
2023-01-09T00:20:17.130Z,23.3
2023-01-09T00:25:17.163Z,23.2
2023-01-09T00:30:17.167Z,23.8
2023-01-09T00:35:17.212Z,24.1
2023-01-09T00:40:17.261Z,24.1
2023-01-09T00:45:17.157Z,25.1
2023-01-09T00:50:17.208Z,25.6
2023-01-09T00:55:17.264Z,25.9
2023-01-09T01:00:17.169Z,25.9
2023-01-09T01:05:17.212Z,26.0
2023-01-09T01:10:17.266Z,26.4
2023-01-09T01:15:17.279Z,26.2
2023-01-09T01:20:17.331Z,26.4
2023-01-09T01:25:17.328Z,26.7
2023-01-09T01:30:17.320Z,26.5
2023-01-09T01:35:17.448Z,26.6
2023-01-09T01:40:17.315Z,26.5
2023-01-09T01:45:17.376Z,26.4
2023-01-09T01:50:17.327Z,26.6
2023-01-09T01:55:17.264Z,26.5
2023-01-09T02:00:17.432Z,26.4
2023-01-09T02:05:17.382Z,26.4
2023-01-09T02:10:17.384Z,26.3
2023-01-09T02:15:15.459Z,26.5
2023-01-09T02:20:15.420Z,26.4
2023-01-09T02:25:15.458Z,26.3
2023-01-09T02:30:15.549Z,26.2
2023-01-09T02:35:15.567Z,26.0
2023-01-09T02:40:15.482Z,25.9
2023-01-09T02:45:15.461Z,25.8
2023-01-09T02:50:15.470Z,25.7
2023-01-09T02:55:15.581Z,25.6
2023-01-09T03:00:15.513Z,25.6
2023-01-09T03:05:15.559Z,25.5
2023-01-09T03:10:15.695Z,25.4
2023-01-09T03:15:15.486Z,25.4
2023-01-09T03:20:15.587Z,25.3
2023-01-09T03:25:15.524Z,25.2
2023-01-09T03:30:15.720Z,25.2
2023-01-09T03:35:15.568Z,25.8
2023-01-09T03:40:15.573Z,26.0
2023-01-09T03:45:15.717Z,26.2
2023-01-09T03:50:15.619Z,26.2
2023-01-09T03:55:15.885Z,26.1
2023-01-09T04:00:15.703Z,26.0
2023-01-09T04:05:15.629Z,26.0
2023-01-09T04:10:15.568Z,25.8
2023-01-09T04:15:15.821Z,26.0
2023-01-09T04:20:15.794Z,26.0
2023-01-09T04:25:15.754Z,26.1
2023-01-09T04:30:15.717Z,26.3
2023-01-09T04:35:15.632Z,26.4
2023-01-09T04:40:15.924Z,26.4
2023-01-09T04:45:15.740Z,26.5
2023-01-09T04:50:15.723Z,26.5
2023-01-09T04:55:15.935Z,26.5
2023-01-09T05:00:16.840Z,26.1
2023-01-09T05:05:16.867Z,26.4
2023-01-09T05:10:16.926Z,26.1
2023-01-09T05:15:16.727Z,26.1
2023-01-09T05:20:16.863Z,26.0
2023-01-09T05:25:16.867Z,25.9
2023-01-09T05:30:18.373Z,25.8
2023-01-09T05:35:16.814Z,25.6
2023-01-09T05:40:16.890Z,25.8
2023-01-09T05:45:16.818Z,25.4
2023-01-09T05:50:16.828Z,25.4
2023-01-09T05:55:16.756Z,25.4
2023-01-09T06:00:16.924Z,25.5
2023-01-09T06:05:16.964Z,25.8
2023-01-09T06:10:16.943Z,25.4
2023-01-09T06:15:16.975Z,25.4
2023-01-09T06:20:16.946Z,25.4
2023-01-09T06:25:16.903Z,25.5
2023-01-09T06:30:16.924Z,25.5
2023-01-09T06:35:16.991Z,25.5
2023-01-09T06:40:17.055Z,25.6
2023-01-09T06:45:16.979Z,25.7
2023-01-09T06:50:17.022Z,25.7
2023-01-09T06:55:16.984Z,25.7
2023-01-09T07:00:17.018Z,25.7
2023-01-09T07:05:16.995Z,25.8
2023-01-09T07:10:17.086Z,25.8
2023-01-09T07:15:17.086Z,25.8
2023-01-09T07:20:17.047Z,25.9
2023-01-09T07:25:17.045Z,26.0
2023-01-09T07:30:17.147Z,26.4
2023-01-09T07:35:17.024Z,26.5
2023-01-09T07:40:17.132Z,26.5
2023-01-09T07:45:17.153Z,26.6
2023-01-09T07:50:17.088Z,26.7
2023-01-09T07:55:17.708Z,26.6
2023-01-09T08:00:17.160Z,26.6
2023-01-09T08:05:17.246Z,26.5
2023-01-09T08:10:17.336Z,26.5
2023-01-09T08:15:17.235Z,26.7
2023-01-09T08:20:17.358Z,26.8
2023-01-09T08:25:17.195Z,26.9
2023-01-09T08:30:17.512Z,27.0
2023-01-09T08:35:17.409Z,27.2
2023-01-09T08:40:17.411Z,27.3
2023-01-09T08:45:17.257Z,27.4
2023-01-09T08:50:17.324Z,27.5
2023-01-09T08:55:17.335Z,27.6
2023-01-09T09:00:17.431Z,27.6
2023-01-09T09:05:17.375Z,27.8
2023-01-09T09:10:17.431Z,27.8
2023-01-09T09:15:17.424Z,27.9
2023-01-09T09:20:17.479Z,28.0
2023-01-09T09:25:17.349Z,28.1
2023-01-09T09:30:17.480Z,28.2
2023-01-09T09:35:17.408Z,28.3
2023-01-09T09:40:19.070Z,28.4
2023-01-09T09:45:15.361Z,28.5
2023-01-09T09:50:15.533Z,28.4
2023-01-09T09:55:15.400Z,28.4
2023-01-09T10:00:15.479Z,28.4
2023-01-09T10:05:15.541Z,28.3
2023-01-09T10:10:15.473Z,28.3
2023-01-09T10:15:15.423Z,28.2
2023-01-09T10:20:15.507Z,28.2
2023-01-09T10:25:15.543Z,28.1
2023-01-09T10:30:15.685Z,28.1
2023-01-09T10:35:15.484Z,28.1
2023-01-09T10:40:15.573Z,28.1
2023-01-09T10:45:15.540Z,28.0
2023-01-09T10:50:15.673Z,27.9
2023-01-09T10:55:15.730Z,27.9
2023-01-09T11:00:15.602Z,27.9
2023-01-09T11:05:15.655Z,28.2
2023-01-09T11:10:15.596Z,28.3
2023-01-09T11:15:15.671Z,28.4
2023-01-09T11:20:15.593Z,28.4
2023-01-09T11:25:15.594Z,28.6
2023-01-09T11:30:15.666Z,28.8
2023-01-09T11:35:15.586Z,28.9
2023-01-09T11:40:15.701Z,28.9
2023-01-09T11:45:15.642Z,29.4
2023-01-09T11:50:15.816Z,29.5
2023-01-09T11:55:15.700Z,29.7
2023-01-09T12:00:15.658Z,29.9
2023-01-09T12:05:15.647Z,29.9
2023-01-09T12:10:15.694Z,29.9
2023-01-09T12:15:15.831Z,29.9
2023-01-09T12:20:15.929Z,30.0
2023-01-09T12:25:15.861Z,30.4
2023-01-09T12:30:15.859Z,30.4
2023-01-09T12:35:15.796Z,30.6
2023-01-09T12:40:15.944Z,30.6
2023-01-09T12:45:15.775Z,30.6
2023-01-09T12:50:15.888Z,30.7
2023-01-09T12:55:15.838Z,30.6
2023-01-09T13:00:15.976Z,30.7
2023-01-09T13:05:15.889Z,30.5
2023-01-09T13:10:15.809Z,30.5
2023-01-09T13:15:15.845Z,30.6
2023-01-09T13:20:15.926Z,30.9
2023-01-09T13:25:15.952Z,31.0
2023-01-09T13:30:15.957Z,31.2
2023-01-09T13:35:16.025Z,31.2
2023-01-09T13:40:15.901Z,31.5
2023-01-09T13:45:15.951Z,31.3
2023-01-09T13:50:15.872Z,31.5
2023-01-09T13:55:15.905Z,31.6
2023-01-09T14:00:15.940Z,31.6
2023-01-09T14:05:15.949Z,31.7
2023-01-09T14:10:16.054Z,32.0
2023-01-09T14:15:16.047Z,32.2
2023-01-09T14:20:15.984Z,32.8
2023-01-09T14:25:16.131Z,32.9
2023-01-09T14:30:16.138Z,32.7
2023-01-09T14:35:16.006Z,32.7
2023-01-09T14:40:16.185Z,32.4
2023-01-09T14:45:16.168Z,32.5
2023-01-09T14:50:16.194Z,32.6
2023-01-09T14:55:16.049Z,32.6
2023-01-09T15:00:16.099Z,32.7
2023-01-09T15:05:16.140Z,32.8
2023-01-09T15:10:16.122Z,32.6
2023-01-09T15:15:16.085Z,32.7
2023-01-09T15:20:16.325Z,32.4
2023-01-09T15:25:16.161Z,32.4
2023-01-09T15:30:16.115Z,32.6
2023-01-09T15:35:16.293Z,32.3
2023-01-09T15:40:16.427Z,32.2
2023-01-09T15:45:16.419Z,32.4
2023-01-09T15:50:16.321Z,32.5
2023-01-09T15:55:16.139Z,32.7
2023-01-09T16:00:16.171Z,32.4
2023-01-09T16:05:16.364Z,32.2
2023-01-09T16:10:16.181Z,32.3
2023-01-09T16:15:16.292Z,32.4
2023-01-09T16:20:16.310Z,32.2
2023-01-09T16:25:16.366Z,32.3
2023-01-09T16:30:16.349Z,31.5
2023-01-09T16:35:16.307Z,31.7
2023-01-09T16:40:16.349Z,31.6
2023-01-09T16:45:16.403Z,32.1
2023-01-09T16:50:16.359Z,32.1
2023-01-09T16:55:16.293Z,32.2
2023-01-09T17:00:16.571Z,32.3
2023-01-09T17:05:16.359Z,31.8
2023-01-09T17:10:16.326Z,32.4
2023-01-09T17:15:16.426Z,31.9
2023-01-09T17:20:16.361Z,31.7
2023-01-09T17:25:16.564Z,31.8
2023-01-09T17:30:20.003Z,31.9
2023-01-09T17:35:16.430Z,31.9
2023-01-09T17:40:16.583Z,31.8
2023-01-09T17:45:16.445Z,31.6
2023-01-09T17:50:16.631Z,31.5
2023-01-09T17:55:16.443Z,31.0
2023-01-09T18:00:16.445Z,31.0
2023-01-09T18:05:16.585Z,31.0
2023-01-09T18:10:16.384Z,31.0
2023-01-09T18:15:16.524Z,31.0
2023-01-09T18:20:16.663Z,30.6
2023-01-09T18:25:16.567Z,30.8
2023-01-09T18:30:16.548Z,30.8
2023-01-09T18:35:16.651Z,30.6
2023-01-09T18:40:16.636Z,30.6
2023-01-09T18:45:16.637Z,30.0
2023-01-09T18:50:16.623Z,29.9
2023-01-09T18:55:16.576Z,29.9
2023-01-09T19:00:16.569Z,30.1
2023-01-09T19:05:16.661Z,30.2
2023-01-09T19:10:19.914Z,30.7
2023-01-09T19:15:16.775Z,30.0
2023-01-09T19:20:16.804Z,30.0
2023-01-09T19:25:16.788Z,30.1
2023-01-09T19:30:16.730Z,30.1
2023-01-09T19:35:16.675Z,30.1
2023-01-09T19:40:16.644Z,30.3
2023-01-09T19:45:16.921Z,30.9
2023-01-09T19:50:16.695Z,30.5
2023-01-09T19:55:16.669Z,30.8
2023-01-09T20:00:16.725Z,31.0
2023-01-09T20:05:16.709Z,30.8
2023-01-09T20:10:16.940Z,30.5
2023-01-09T20:15:17.753Z,30.4
2023-01-09T20:20:22.070Z,30.4
2023-01-09T20:25:16.873Z,30.8
2023-01-09T20:30:16.787Z,30.7
2023-01-09T20:35:16.812Z,30.5
2023-01-09T20:40:16.906Z,30.4
2023-01-09T20:45:16.831Z,30.8
2023-01-09T20:50:17.057Z,30.5
2023-01-09T20:55:16.901Z,30.4
2023-01-09T21:00:16.858Z,30.7
2023-01-09T21:05:17.101Z,30.6
2023-01-09T21:10:16.859Z,30.5
2023-01-09T21:15:16.975Z,30.4
2023-01-09T21:20:16.973Z,30.3
2023-01-09T21:25:17.046Z,29.8
2023-01-09T21:30:16.995Z,29.8
2023-01-09T21:35:17.024Z,29.8
2023-01-09T21:40:16.968Z,30.4
2023-01-09T21:45:17.080Z,29.8
2023-01-09T21:50:17.529Z,30.1
2023-01-09T21:55:16.873Z,29.6
2023-01-09T22:00:17.035Z,29.9
2023-01-09T22:05:17.133Z,30.2
2023-01-09T22:10:17.009Z,30.8
2023-01-09T22:15:17.254Z,30.7
2023-01-09T22:20:17.180Z,30.5
2023-01-09T22:25:17.138Z,30.3
2023-01-09T22:30:17.145Z,30.0
2023-01-09T22:35:17.159Z,29.9
2023-01-09T22:40:17.144Z,29.7
2023-01-09T22:45:17.143Z,29.2
2023-01-09T22:50:17.170Z,29.3
2023-01-09T22:55:17.462Z,29.1
2023-01-09T23:00:17.166Z,28.6
2023-01-09T23:05:17.118Z,28.4
2023-01-09T23:10:17.177Z,28.5
2023-01-09T23:15:17.260Z,28.8
2023-01-09T23:20:17.139Z,28.2
2023-01-09T23:25:17.224Z,28.5
2023-01-09T23:30:17.423Z,28.6
2023-01-09T23:35:17.262Z,28.5
2023-01-09T23:40:17.215Z,27.9
2023-01-09T23:45:17.294Z,27.7
2023-01-09T23:50:17.431Z,28.0
2023-01-09T23:55:17.147Z,27.9
